Time;durP1;ratioP1;P1;durP2;ratioP2;P2;SDS_P1;SDS_P2;PMS_P1;PMS_P2;Temp;Humidity;BMP_temperature;BMP_pressure;BME280_temperature;BME280_humidity;BME280_pressure;Samples;Min_cycle;Max_cycle;Signal;HPM_P1;HPM_P2
2024/03/01 00:02:13;;;;;;;;;;;23.20;42.50;;;;;;5055527;28;19932;-65
2024/03/01 00:04:42;;;;;;;;;;;23.10;42.50;;;;;;5055007;28;19975;-65
2024/03/01 00:07:09;;;;;;;;;;;23.10;42.50;;;;;;5054987;28;19932;-65
2024/03/01 00:09:36;;;;;;;;;;;23.10;42.60;;;;;;5055147;28;19925;-64
2024/03/01 00:12:03;;;;;;;;;;;23.10;42.60;;;;;;5054611;28;19928;-64
2024/03/01 00:14:30;;;;;;;;;;;23.10;42.60;;;;;;5053580;28;19979;-64
2024/03/01 00:16:57;;;;;;;;;;;23.10;42.60;;;;;;5055003;28;19929;-64
2024/03/01 00:19:24;;;;;;;;;;;23.10;42.70;;;;;;5054630;28;19958;-64
2024/03/01 00:21:51;;;;;;;;;;;23.10;42.60;;;;;;5054757;28;20019;-65
2024/03/01 00:24:18;;;;;;;;;;;23.10;42.60;;;;;;5054513;28;19924;-65
2024/03/01 00:26:45;;;;;;;;;;;23.10;42.50;;;;;;5054740;28;19925;-64
2024/03/01 00:29:12;;;;;;;;;;;23.10;42.40;;;;;;5053206;28;19936;-65
2024/03/01 00:31:39;;;;;;;;;;;23.10;42.40;;;;;;5054474;28;19936;-64
2024/03/01 00:34:07;;;;;;;;;;;23.10;42.40;;;;;;5054300;28;19932;-67
2024/03/01 00:36:34;;;;;;;;;;;23.10;42.30;;;;;;5054477;28;20292;-64
2024/03/01 00:39:01;;;;;;;;;;;23.10;42.30;;;;;;5054734;28;19924;-64
2024/03/01 00:41:29;;;;;;;;;;;23.10;42.30;;;;;;5054177;28;19935;-64
2024/03/01 00:43:58;;;;;;;;;;;23.10;42.30;;;;;;5053885;28;19987;-64
2024/03/01 00:46:26;;;;;;;;;;;23.10;42.30;;;;;;5053764;28;19925;-64
2024/03/01 00:48:56;;;;;;;;;;;23.10;42.30;;;;;;5054513;28;20393;-64
2024/03/01 00:51:23;;;;;;;;;;;23.10;42.30;;;;;;5054018;28;19931;-64
2024/03/01 00:53:50;;;;;;;;;;;23.10;42.30;;;;;;5053878;28;19987;-64
2024/03/01 00:56:17;;;;;;;;;;;23.10;42.20;;;;;;5054235;28;20015;-65
2024/03/01 00:58:44;;;;;;;;;;;23.10;42.30;;;;;;5054188;28;19999;-65
2024/03/01 01:01:12;;;;;;;;;;;23.10;42.30;;;;;;5053559;28;20011;-66
2024/03/01 01:03:39;;;;;;;;;;;23.10;42.20;;;;;;5054096;28;19936;-64
2024/03/01 01:06:06;;;;;;;;;;;23.10;42.30;;;;;;5054087;28;19971;-64
2024/03/01 01:08:33;;;;;;;;;;;23.10;42.80;;;;;;5053646;28;20374;-64
2024/03/01 01:11:00;;;;;;;;;;;23.10;42.30;;;;;;5053774;28;19970;-64
2024/03/01 01:13:27;;;;;;;;;;;23.10;42.30;;;;;;5053602;28;19935;-64
2024/03/01 01:15:54;;;;;;;;;;;23.00;42.30;;;;;;5053739;28;19970;-64
2024/03/01 01:18:22;;;;;;;;;;;23.00;42.30;;;;;;5053310;28;19931;-64
2024/03/01 01:20:49;;;;;;;;;;;23.00;42.40;;;;;;5053504;28;20395;-65
2024/03/01 01:23:16;;;;;;;;;;;23.00;42.40;;;;;;5053431;28;19960;-65
2024/03/01 01:25:43;;;;;;;;;;;23.00;42.50;;;;;;5053259;28;19929;-65
2024/03/01 01:28:10;;;;;;;;;;;23.00;42.50;;;;;;5053594;28;19929;-65
2024/03/01 01:30:37;;;;;;;;;;;23.00;42.40;;;;;;5053216;28;20007;-65
2024/03/01 01:33:04;;;;;;;;;;;23.00;42.40;;;;;;5053597;28;19925;-65
2024/03/01 01:35:33;;;;;;;;;;;23.00;42.30;;;;;;5052807;28;20366;-64
2024/03/01 01:38:00;;;;;;;;;;;23.00;42.30;;;;;;5053224;28;20028;-64
2024/03/01 01:40:30;;;;;;;;;;;23.00;42.20;;;;;;5053506;28;19924;-64
2024/03/01 01:43:01;;;;;;;;;;;23.00;42.20;;;;;;5053325;28;20007;-64
2024/03/01 01:45:28;;;;;;;;;;;23.00;42.20;;;;;;5052822;28;20302;-64
2024/03/01 01:47:56;;;;;;;;;;;23.00;42.20;;;;;;5053599;28;19932;-64
2024/03/01 01:50:23;;;;;;;;;;;23.00;42.70;;;;;;5053426;28;20195;-64
2024/03/01 01:52:50;;;;;;;;;;;23.10;42.70;;;;;;5053055;28;19924;-64
2024/03/01 01:55:18;;;;;;;;;;;23.10;42.10;;;;;;5052779;28;19925;-64
2024/03/01 01:57:46;;;;;;;;;;;23.00;42.00;;;;;;5053222;28;19924;-65
2024/03/01 02:00:13;;;;;;;;;;;23.10;42.10;;;;;;5035544;28;19968;-64
2024/03/01 02:02:41;;;;;;;;;;;23.00;42.10;;;;;;5053134;28;19931;-65
2024/03/01 02:05:09;;;;;;;;;;;23.00;42.00;;;;;;5052809;28;19929;-65
2024/03/01 02:07:37;;;;;;;;;;;23.00;42.10;;;;;;5052338;28;19925;-64
2024/03/01 02:10:17;;;;;;;;;;;23.00;42.10;;;;;;5053178;28;19975;-64
2024/03/01 02:12:52;;;;;;;;;;;23.00;42.10;;;;;;5053311;28;20314;-64
2024/03/01 02:15:19;;;;;;;;;;;23.10;42.10;;;;;;5052680;28;20055;-64
2024/03/01 02:17:46;;;;;;;;;;;23.00;42.10;;;;;;5053088;28;19925;-65
2024/03/01 02:20:15;;;;;;;;;;;23.00;42.10;;;;;;5053198;28;19933;-65
2024/03/01 02:22:46;;;;;;;;;;;23.00;42.10;;;;;;5052647;28;20016;-65
2024/03/01 02:25:12;;;;;;;;;;;23.00;42.20;;;;;;5052229;28;20375;-65
2024/03/01 02:27:39;;;;;;;;;;;23.00;42.20;;;;;;5052817;28;19928;-65
2024/03/01 02:30:09;;;;;;;;;;;23.00;42.30;;;;;;5052667;28;20395;-65
2024/03/01 02:32:36;;;;;;;;;;;22.90;42.30;;;;;;5052773;28;19925;-64
2024/03/01 02:35:04;;;;;;;;;;;22.90;42.30;;;;;;5052402;28;19929;-64
2024/03/01 02:37:31;;;;;;;;;;;22.90;42.30;;;;;;5052534;28;19971;-64
2024/03/01 02:39:58;;;;;;;;;;;22.90;42.30;;;;;;5052944;28;19932;-64
2024/03/01 02:42:25;;;;;;;;;;;22.90;42.30;;;;;;5052647;28;19924;-64
2024/03/01 02:44:52;;;;;;;;;;;22.90;42.20;;;;;;5052646;28;20301;-64
2024/03/01 02:47:19;;;;;;;;;;;23.00;42.20;;;;;;5052942;28;19970;-64
2024/03/01 02:49:46;;;;;;;;;;;23.00;42.10;;;;;;5052624;28;19924;-65
2024/03/01 02:52:15;;;;;;;;;;;23.00;42.10;;;;;;5052645;28;19968;-65
2024/03/01 02:54:42;;;;;;;;;;;23.00;42.00;;;;;;5052581;28;20007;-65
2024/03/01 02:57:09;;;;;;;;;;;23.00;42.00;;;;;;5052609;28;19948;-65
2024/03/01 02:59:36;;;;;;;;;;;23.00;42.00;;;;;;5051831;28;20382;-65
2024/03/01 03:02:03;;;;;;;;;;;23.00;42.00;;;;;;5052623;28;20351;-65
2024/03/01 03:04:30;;;;;;;;;;;23.00;41.90;;;;;;5052351;28;20340;-65
2024/03/01 03:06:59;;;;;;;;;;;23.00;41.90;;;;;;5052389;28;19925;-65
2024/03/01 03:09:36;;;;;;;;;;;23.00;41.90;;;;;;5056339;28;19925;-65
2024/03/01 03:12:03;;;;;;;;;;;23.00;41.90;;;;;;5056387;28;20356;-65
2024/03/01 03:14:30;;;;;;;;;;;23.00;41.90;;;;;;5055446;28;19932;-65
2024/03/01 03:16:57;;;;;;;;;;;23.00;41.90;;;;;;5056112;28;19924;-65
2024/03/01 03:19:24;;;;;;;;;;;23.00;41.90;;;;;;5055895;28;20015;-65
2024/03/01 03:21:51;;;;;;;;;;;23.00;41.90;;;;;;5056014;28;19924;-65
2024/03/01 03:24:20;;;;;;;;;;;23.00;41.90;;;;;;5055306;28;20285;-65
2024/03/01 03:26:47;;;;;;;;;;;22.90;41.90;;;;;;5055657;28;19925;-65
2024/03/01 03:29:14;;;;;;;;;;;22.90;41.90;;;;;;5055561;28;20436;-65
2024/03/01 03:31:41;;;;;;;;;;;22.90;42.00;;;;;;5055220;28;20382;-65
2024/03/01 03:34:11;;;;;;;;;;;22.90;42.00;;;;;;5055266;28;20386;-65
2024/03/01 03:36:38;;;;;;;;;;;22.90;42.10;;;;;;5055545;28;20432;-65
2024/03/01 03:39:06;;;;;;;;;;;22.80;42.00;;;;;;5055428;28;19929;-65
2024/03/01 03:41:34;;;;;;;;;;;22.80;42.10;;;;;;5055314;28;20410;-64
2024/03/01 03:44:02;;;;;;;;;;;22.80;42.10;;;;;;5055731;28;19925;-65
2024/03/01 03:46:29;;;;;;;;;;;22.80;42.20;;;;;;5055289;28;19978;-65
2024/03/01 03:48:57;;;;;;;;;;;22.80;42.70;;;;;;5055022;28;19925;-65
2024/03/01 03:51:27;;;;;;;;;;;22.80;42.10;;;;;;5055511;28;19935;-65
2024/03/01 03:53:55;;;;;;;;;;;22.80;42.00;;;;;;5055127;28;20373;-65
2024/03/01 03:56:22;;;;;;;;;;;22.90;42.00;;;;;;5055112;28;19925;-65
2024/03/01 03:58:51;;;;;;;;;;;22.90;41.90;;;;;;5053794;28;19928;-65
2024/03/01 04:01:21;;;;;;;;;;;22.90;41.90;;;;;;5055316;28;19979;-65
2024/03/01 04:03:50;;;;;;;;;;;22.90;41.90;;;;;;5054711;28;19925;-65
2024/03/01 04:06:17;;;;;;;;;;;22.90;41.80;;;;;;5055014;28;19925;-65
2024/03/01 04:08:44;;;;;;;;;;;22.90;41.90;;;;;;5055216;28;19937;-65
2024/03/01 04:11:11;;;;;;;;;;;22.90;41.80;;;;;;5054808;28;19924;-65
2024/03/01 04:13:38;;;;;;;;;;;22.90;41.80;;;;;;5054783;28;19924;-65
2024/03/01 04:16:06;;;;;;;;;;;22.90;41.80;;;;;;5053806;28;19979;-65
2024/03/01 04:18:33;;;;;;;;;;;22.90;41.80;;;;;;5054001;28;20325;-65
2024/03/01 04:21:00;;;;;;;;;;;22.90;41.80;;;;;;5054005;28;19925;-65
2024/03/01 04:23:27;;;;;;;;;;;22.90;41.80;;;;;;5054662;28;19933;-65
2024/03/01 04:25:54;;;;;;;;;;;22.90;41.80;;;;;;5054560;28;19928;-65
2024/03/01 04:28:21;;;;;;;;;;;22.90;41.80;;;;;;5054919;28;19924;-65
2024/03/01 04:30:49;;;;;;;;;;;22.90;41.80;;;;;;5054665;28;20012;-66
2024/03/01 04:33:16;;;;;;;;;;;22.90;41.80;;;;;;5054819;28;19928;-65
2024/03/01 04:35:43;;;;;;;;;;;22.90;41.80;;;;;;5053381;28;19983;-65
2024/03/01 04:38:10;;;;;;;;;;;22.90;41.80;;;;;;5053944;28;20016;-65
2024/03/01 04:40:43;;;;;;;;;;;22.90;41.60;;;;;;5053330;28;20445;-65
2024/03/01 04:43:10;;;;;;;;;;;22.90;41.30;;;;;;5054582;28;19925;-65
2024/03/01 04:45:37;;;;;;;;;;;22.90;41.10;;;;;;5054102;28;19925;-65
2024/03/01 04:48:04;;;;;;;;;;;22.90;40.90;;;;;;5054173;28;20378;-65
2024/03/01 04:50:32;;;;;;;;;;;22.90;40.80;;;;;;5054087;28;19925;-65
2024/03/01 04:52:59;;;;;;;;;;;22.90;40.60;;;;;;5054025;28;19931;-65
2024/03/01 04:55:26;;;;;;;;;;;22.90;40.60;;;;;;5053584;28;19994;-65
2024/03/01 04:57:53;;;;;;;;;;;22.90;40.60;;;;;;5054150;28;19963;-65
2024/03/01 05:00:21;;;;;;;;;;;22.90;40.50;;;;;;5052274;28;19928;-65
2024/03/01 05:02:49;;;;;;;;;;;22.90;40.50;;;;;;5053666;28;19924;-65
2024/03/01 05:05:18;;;;;;;;;;;22.90;40.40;;;;;;5053506;28;19925;-65
2024/03/01 05:07:48;;;;;;;;;;;22.90;40.30;;;;;;5053442;28;20341;-65
2024/03/01 05:10:21;;;;;;;;;;;22.90;40.20;;;;;;5051220;28;19975;-65
2024/03/01 05:12:49;;;;;;;;;;;23.00;40.20;;;;;;5052186;28;19931;-65
2024/03/01 05:15:16;;;;;;;;;;;23.00;40.20;;;;;;5053229;28;19931;-65
2024/03/01 05:17:45;;;;;;;;;;;23.00;40.10;;;;;;5053606;28;19929;-65
2024/03/01 05:20:12;;;;;;;;;;;23.00;40.00;;;;;;5053469;28;19944;-65
2024/03/01 05:22:39;;;;;;;;;;;23.00;40.10;;;;;;5053138;28;20000;-65
2024/03/01 05:25:14;;;;;;;;;;;23.00;40.10;;;;;;5053400;28;19929;-65
2024/03/01 05:27:45;;;;;;;;;;;23.00;40.00;;;;;;5053011;28;19924;-65
2024/03/01 05:30:14;;;;;;;;;;;23.00;40.00;;;;;;5053107;28;20405;-65
2024/03/01 05:32:48;;;;;;;;;;;23.00;39.90;;;;;;5052908;28;19924;-65
2024/03/01 05:35:16;;;;;;;;;;;23.00;39.90;;;;;;5052398;28;20306;-65
2024/03/01 05:37:43;;;;;;;;;;;23.00;39.90;;;;;;5035367;28;19955;-65
2024/03/01 05:40:11;;;;;;;;;;;23.00;39.90;;;;;;5053360;28;20338;-65
2024/03/01 05:42:41;;;;;;;;;;;23.00;39.90;;;;;;5052873;28;20366;-65
2024/03/01 05:45:08;;;;;;;;;;;23.00;39.90;;;;;;5051361;28;19932;-65
2024/03/01 05:47:36;;;;;;;;;;;23.00;39.90;;;;;;5052227;28;19936;-65
2024/03/01 05:50:05;;;;;;;;;;;23.00;39.90;;;;;;5052158;28;19932;-64
2024/03/01 05:52:33;;;;;;;;;;;23.00;39.90;;;;;;5052759;28;19979;-65
2024/03/01 05:55:01;;;;;;;;;;;22.90;40.40;;;;;;5052081;28;19947;-65
2024/03/01 05:57:31;;;;;;;;;;;22.90;39.90;;;;;;5052090;28;20007;-65
2024/03/01 05:59:58;;;;;;;;;;;22.90;39.90;;;;;;5052870;28;20259;-64
2024/03/01 06:02:25;;;;;;;;;;;22.90;39.90;;;;;;5052587;28;19936;-64
2024/03/01 06:04:52;;;;;;;;;;;22.90;40.50;;;;;;5051084;28;19932;-64
2024/03/01 06:07:20;;;;;;;;;;;22.90;39.90;;;;;;5052782;28;20440;-64
2024/03/01 06:09:47;;;;;;;;;;;22.90;39.90;;;;;;5052033;28;19928;-64
2024/03/01 06:12:14;;;;;;;;;;;23.00;39.90;;;;;;5051893;28;19937;-66
2024/03/01 06:14:41;;;;;;;;;;;23.00;39.90;;;;;;5048685;28;19925;-67
2024/03/01 06:17:08;;;;;;;;;;;23.00;39.90;;;;;;5048692;28;19929;-76
2024/03/01 06:19:35;;;;;;;;;;;23.00;39.90;;;;;;5026289;28;19928;-74
2024/03/01 06:22:02;;;;;;;;;;;23.00;40.00;;;;;;5051264;28;19925;-71
2024/03/01 06:24:29;;;;;;;;;;;23.00;40.10;;;;;;5048086;28;20374;-74
2024/03/01 06:26:57;;;;;;;;;;;23.00;40.30;;;;;;5049655;28;19925;-74
2024/03/01 06:29:23;;;;;;;;;;;23.00;40.40;;;;;;5045485;28;19979;-71
2024/03/01 06:31:51;;;;;;;;;;;23.00;40.50;;;;;;5051087;28;19931;-73
2024/03/01 06:34:17;;;;;;;;;;;23.00;40.50;;;;;;5041455;28;19947;-71
2024/03/01 06:36:44;;;;;;;;;;;23.00;40.60;;;;;;5044603;28;19929;-70
2024/03/01 06:39:11;;;;;;;;;;;23.00;40.60;;;;;;5045769;28;20396;-74
2024/03/01 06:41:38;;;;;;;;;;;23.00;40.90;;;;;;5042786;28;20385;-72
2024/03/01 06:44:06;;;;;;;;;;;23.10;41.20;;;;;;5046200;28;19929;-71
2024/03/01 06:46:33;;;;;;;;;;;23.10;41.40;;;;;;5046110;28;19929;-77
2024/03/01 06:49:03;;;;;;;;;;;23.20;41.40;;;;;;5045282;28;19960;-75
2024/03/01 06:51:30;;;;;;;;;;;23.20;41.40;;;;;;5040949;28;20358;-74
2024/03/01 06:53:58;;;;;;;;;;;23.20;41.20;;;;;;5043525;28;20439;-76
2024/03/01 06:56:25;;;;;;;;;;;23.30;41.20;;;;;;5041818;28;19967;-75
2024/03/01 06:58:52;;;;;;;;;;;23.40;41.20;;;;;;5041192;28;19964;-75
2024/03/01 07:01:18;;;;;;;;;;;23.40;41.00;;;;;;5039081;28;20023;-75
2024/03/01 07:03:46;;;;;;;;;;;23.40;40.80;;;;;;5030489;28;20019;-75
2024/03/01 07:06:13;;;;;;;;;;;23.40;40.60;;;;;;5042293;28;19939;-75
2024/03/01 07:08:41;;;;;;;;;;;23.50;40.50;;;;;;5040392;28;19979;-75
2024/03/01 07:11:08;;;;;;;;;;;23.50;40.30;;;;;;5042884;28;19944;-74
2024/03/01 07:13:35;;;;;;;;;;;23.50;40.30;;;;;;5047254;28;19939;-73
2024/03/01 07:16:02;;;;;;;;;;;23.50;40.30;;;;;;5045540;28;20374;-73
2024/03/01 07:18:30;;;;;;;;;;;23.50;40.30;;;;;;5025791;28;19933;-73
2024/03/01 07:20:57;;;;;;;;;;;23.50;40.30;;;;;;5047006;28;19932;-72
2024/03/01 07:23:25;;;;;;;;;;;23.50;40.60;;;;;;5030303;28;19932;-73
2024/03/01 07:25:51;;;;;;;;;;;23.60;40.80;;;;;;5047362;28;19928;-73
2024/03/01 07:28:18;;;;;;;;;;;23.60;40.80;;;;;;5048636;28;20004;-75
2024/03/01 07:30:46;;;;;;;;;;;23.70;40.90;;;;;;5050707;28;20022;-75
2024/03/01 07:33:13;;;;;;;;;;;23.70;40.80;;;;;;5046835;28;19933;-74
2024/03/01 07:35:41;;;;;;;;;;;23.80;40.80;;;;;;5047233;28;20020;-73
2024/03/01 07:38:10;;;;;;;;;;;23.80;40.70;;;;;;5044501;28;19968;-73
2024/03/01 07:40:37;;;;;;;;;;;23.90;40.60;;;;;;5046232;28;20034;-72
2024/03/01 07:43:04;;;;;;;;;;;23.90;40.60;;;;;;5046746;28;19955;-73
2024/03/01 07:45:32;;;;;;;;;;;23.90;40.50;;;;;;5050675;28;19925;-71
2024/03/01 07:47:59;;;;;;;;;;;24.00;40.40;;;;;;5043275;28;19985;-72
2024/03/01 07:50:26;;;;;;;;;;;24.10;40.30;;;;;;5047412;28;19929;-73
2024/03/01 07:52:53;;;;;;;;;;;24.10;40.20;;;;;;5043721;28;19933;-72
2024/03/01 07:55:20;;;;;;;;;;;24.10;40.10;;;;;;5046624;28;19925;-72
2024/03/01 07:57:48;;;;;;;;;;;24.10;40.40;;;;;;5045356;28;20255;-75
2024/03/01 08:00:16;;;;;;;;;;;24.10;40.50;;;;;;5048707;28;20408;-77
2024/03/01 08:02:43;;;;;;;;;;;24.20;40.40;;;;;;5044670;28;19946;-73
2024/03/01 08:05:10;;;;;;;;;;;24.20;40.30;;;;;;5045708;28;20011;-73
2024/03/01 08:07:37;;;;;;;;;;;24.20;40.30;;;;;;5046769;28;19968;-69
2024/03/01 08:10:04;;;;;;;;;;;24.30;40.20;;;;;;5043066;28;19933;-73
2024/03/01 08:12:32;;;;;;;;;;;24.30;40.20;;;;;;5042017;28;20332;-75
2024/03/01 08:15:00;;;;;;;;;;;24.30;40.20;;;;;;5042734;28;20320;-76
2024/03/01 08:17:27;;;;;;;;;;;24.40;40.10;;;;;;5045466;28;19933;-76
2024/03/01 08:19:54;;;;;;;;;;;24.50;39.90;;;;;;5046120;28;19929;-74
2024/03/01 08:22:21;;;;;;;;;;;24.60;39.70;;;;;;5045632;28;19925;-75
2024/03/01 08:24:49;;;;;;;;;;;24.70;39.60;;;;;;5042705;28;19933;-74
2024/03/01 08:27:23;;;;;;;;;;;24.70;39.40;;;;;;5044845;28;20433;-77
2024/03/01 08:29:51;;;;;;;;;;;24.70;39.30;;;;;;5046170;28;19929;-77
2024/03/01 08:32:28;;;;;;;;;;;24.80;39.20;;;;;;5044426;28;20525;-74
2024/03/01 08:34:56;;;;;;;;;;;24.90;39.30;;;;;;5044748;28;20431;-76
2024/03/01 08:37:24;;;;;;;;;;;24.90;39.20;;;;;;5021334;28;20036;-76
2024/03/01 08:39:53;;;;;;;;;;;24.90;39.00;;;;;;5041626;28;19929;-76
2024/03/01 08:42:21;;;;;;;;;;;25.00;39.00;;;;;;5049295;28;19983;-74
2024/03/01 08:44:54;;;;;;;;;;;25.00;38.80;;;;;;5043072;28;19929;-74
2024/03/01 08:47:30;;;;;;;;;;;25.10;38.80;;;;;;5045636;28;19925;-74
2024/03/01 08:50:17;;;;;;;;;;;25.10;38.70;;;;;;5046150;28;20070;-74
2024/03/01 08:52:44;;;;;;;;;;;25.10;38.70;;;;;;5044628;28;20063;-75
2024/03/01 08:55:30;;;;;;;;;;;25.10;38.60;;;;;;5048727;28;19978;-74
2024/03/01 08:57:58;;;;;;;;;;;25.10;38.50;;;;;;5028506;28;19939;-76
2024/03/01 09:00:46;;;;;;;;;;;25.10;38.50;;;;;;5050782;28;19936;-76
2024/03/01 09:03:15;;;;;;;;;;;25.20;38.50;;;;;;5049046;28;19932;-75
2024/03/01 09:05:42;;;;;;;;;;;25.20;38.40;;;;;;5044732;28;19986;-73
2024/03/01 09:08:12;;;;;;;;;;;25.30;38.30;;;;;;5043653;28;20015;-73
2024/03/01 09:10:42;;;;;;;;;;;25.30;38.10;;;;;;5046784;28;20002;-76
2024/03/01 09:13:09;;;;;;;;;;;25.40;38.10;;;;;;5044101;28;19933;-76
2024/03/01 09:15:38;;;;;;;;;;;25.40;38.20;;;;;;5045860;28;19929;-74
2024/03/01 09:18:25;;;;;;;;;;;25.40;38.20;;;;;;5041072;28;20370;-75
2024/03/01 09:20:53;;;;;;;;;;;25.40;38.10;;;;;;5043668;28;19932;-75
2024/03/01 09:23:21;;;;;;;;;;;25.40;38.00;;;;;;5043608;28;19932;-75
2024/03/01 09:25:59;;;;;;;;;;;25.50;38.00;;;;;;5043470;28;20206;-78
2024/03/01 09:28:26;;;;;;;;;;;25.50;38.00;;;;;;5030747;28;19933;-74
2024/03/01 09:30:54;;;;;;;;;;;25.50;37.70;;;;;;5042679;28;19951;-75
2024/03/01 09:33:23;;;;;;;;;;;25.50;37.70;;;;;;5041118;28;19943;-76
2024/03/01 09:35:53;;;;;;;;;;;25.60;37.70;;;;;;5039578;28;19986;-74
2024/03/01 09:38:21;;;;;;;;;;;25.60;37.70;;;;;;5046542;28;19928;-74
2024/03/01 09:41:08;;;;;;;;;;;25.70;37.70;;;;;;5042450;28;19928;-75
2024/03/01 09:43:58;;;;;;;;;;;25.70;37.50;;;;;;5044932;28;19933;-76
2024/03/01 09:46:45;;;;;;;;;;;25.70;37.40;;;;;;5041233;28;19932;-77
2024/03/01 09:49:24;;;;;;;;;;;25.70;37.30;;;;;;5038720;28;20059;-72
2024/03/01 09:52:08;;;;;;;;;;;25.70;37.30;;;;;;5037863;28;19945;-72
2024/03/01 09:54:39;;;;;;;;;;;25.70;37.40;;;;;;5043215;28;19979;-70
2024/03/01 09:57:13;;;;;;;;;;;25.70;37.50;;;;;;5036660;28;19939;-73
2024/03/01 09:59:46;;;;;;;;;;;25.70;37.60;;;;;;5034237;28;20065;-72
2024/03/01 10:02:33;;;;;;;;;;;25.70;37.50;;;;;;5036068;28;19929;-73
2024/03/01 10:05:19;;;;;;;;;;;25.70;37.70;;;;;;5020054;28;20451;-71
2024/03/01 10:07:58;;;;;;;;;;;25.70;37.60;;;;;;5034108;28;20437;-78
2024/03/01 10:10:41;;;;;;;;;;;25.70;37.70;;;;;;5034791;28;19925;-73
2024/03/01 10:13:25;;;;;;;;;;;25.80;37.80;;;;;;5033950;28;19933;-74
2024/03/01 10:16:13;;;;;;;;;;;25.80;37.60;;;;;;5041975;28;19940;-72
2024/03/01 10:19:00;;;;;;;;;;;25.80;37.60;;;;;;5038411;28;20032;-71
2024/03/01 10:21:47;;;;;;;;;;;25.80;37.70;;;;;;5038776;28;20617;-72
2024/03/01 10:24:22;;;;;;;;;;;25.90;37.80;;;;;;5048815;28;20298;-72
2024/03/01 10:26:57;;;;;;;;;;;25.90;37.60;;;;;;5051081;28;19925;-72
2024/03/01 10:29:32;;;;;;;;;;;26.00;37.60;;;;;;5049074;28;19932;-72
2024/03/01 10:32:10;;;;;;;;;;;26.00;37.50;;;;;;5050530;28;20055;-72
2024/03/01 10:34:49;;;;;;;;;;;26.00;37.40;;;;;;5051117;28;19929;-71
2024/03/01 10:37:35;;;;;;;;;;;26.00;37.30;;;;;;5048576;28;19924;-76
2024/03/01 10:40:14;;;;;;;;;;;26.00;37.30;;;;;;5046447;28;20014;-75
2024/03/01 10:42:45;;;;;;;;;;;26.10;37.30;;;;;;5049106;28;19971;-73
2024/03/01 10:45:20;;;;;;;;;;;26.10;37.30;;;;;;5045990;28;19937;-73
2024/03/01 10:47:48;;;;;;;;;;;26.10;37.80;;;;;;5049828;28;19935;-75
2024/03/01 10:50:22;;;;;;;;;;;26.10;37.10;;;;;;5049410;28;19932;-73
2024/03/01 10:53:06;;;;;;;;;;;26.10;37.10;;;;;;5052070;28;19925;-72
2024/03/01 10:55:34;;;;;;;;;;;26.10;37.00;;;;;;5047941;28;20318;-74
2024/03/01 10:58:04;;;;;;;;;;;26.10;36.90;;;;;;5050449;28;20404;-72
2024/03/01 11:00:33;;;;;;;;;;;26.20;37.00;;;;;;5050875;28;19929;-75
2024/03/01 11:03:07;;;;;;;;;;;26.20;37.10;;;;;;5045929;28;19932;-72
2024/03/01 11:05:49;;;;;;;;;;;26.20;37.20;;;;;;5048878;28;19929;-71
2024/03/01 11:08:27;;;;;;;;;;;26.20;37.00;;;;;;5049273;28;20372;-72
2024/03/01 11:11:04;;;;;;;;;;;26.20;36.80;;;;;;5052439;28;19931;-71
2024/03/01 11:13:34;;;;;;;;;;;26.20;36.80;;;;;;5044529;28;19935;-70
2024/03/01 11:16:03;;;;;;;;;;;26.20;36.70;;;;;;5048363;28;20015;-71
2024/03/01 11:18:33;;;;;;;;;;;26.20;36.70;;;;;;5053170;28;19948;-69
2024/03/01 11:21:02;;;;;;;;;;;26.20;36.60;;;;;;5064036;28;19924;-70
2024/03/01 11:23:30;;;;;;;;;;;26.20;36.60;;;;;;5052061;28;19956;-70
2024/03/01 11:26:11;;;;;;;;;;;26.10;36.60;;;;;;5046640;28;19931;-70
2024/03/01 11:28:40;;;;;;;;;;;26.10;36.60;;;;;;5050121;28;19925;-71
2024/03/01 11:31:11;;;;;;;;;;;26.10;36.70;;;;;;5050800;28;19928;-71
2024/03/01 11:33:40;;;;;;;;;;;26.10;36.70;;;;;;5049912;28;20012;-71
2024/03/01 11:36:28;;;;;;;;;;;26.10;36.70;;;;;;5049037;28;19936;-71
2024/03/01 11:38:59;;;;;;;;;;;26.10;36.70;;;;;;5049404;28;19940;-72
2024/03/01 11:41:35;;;;;;;;;;;26.10;36.80;;;;;;5047948;28;20298;-73
2024/03/01 11:44:22;;;;;;;;;;;26.10;36.90;;;;;;5050058;28;19925;-74
2024/03/01 11:47:02;;;;;;;;;;;26.10;36.90;;;;;;5048759;28;19924;-73
2024/03/01 11:49:47;;;;;;;;;;;26.10;36.90;;;;;;5049115;28;20317;-73
2024/03/01 11:52:33;;;;;;;;;;;26.10;36.70;;;;;;5049292;28;19925;-76
2024/03/01 11:55:20;;;;;;;;;;;26.10;36.70;;;;;;5046039;28;19936;-75
2024/03/01 11:58:08;;;;;;;;;;;26.20;37.40;;;;;;5050600;28;20386;-72
2024/03/01 12:00:56;;;;;;;;;;;26.20;36.80;;;;;;5044605;28;19935;-72
2024/03/01 12:03:42;;;;;;;;;;;26.20;36.70;;;;;;5048504;28;19964;-71
2024/03/01 12:06:24;;;;;;;;;;;26.20;36.70;;;;;;5045085;28;20362;-78
2024/03/01 12:09:03;;;;;;;;;;;26.30;36.60;;;;;;5044459;28;20034;-72
2024/03/01 12:11:48;;;;;;;;;;;26.30;36.80;;;;;;5045246;28;19932;-73
2024/03/01 12:14:18;;;;;;;;;;;26.40;36.90;;;;;;5048517;28;19970;-73
2024/03/01 12:16:51;;;;;;;;;;;26.50;37.00;;;;;;5045571;28;19933;-68
2024/03/01 12:19:26;;;;;;;;;;;26.50;36.90;;;;;;5025958;28;20019;-71
2024/03/01 12:22:05;;;;;;;;;;;26.50;36.70;;;;;;5045158;28;19984;-71
2024/03/01 12:24:35;;;;;;;;;;;26.60;36.70;;;;;;5041528;28;19936;-76
2024/03/01 12:27:17;;;;;;;;;;;26.60;36.60;;;;;;5048988;28;20373;-69
2024/03/01 12:29:51;;;;;;;;;;;26.60;36.60;;;;;;5045196;28;19994;-78
2024/03/01 12:32:33;;;;;;;;;;;26.60;36.70;;;;;;5045057;28;20043;-70
2024/03/01 12:35:20;;;;;;;;;;;26.60;36.70;;;;;;5029907;28;20356;-75
2024/03/01 12:38:02;;;;;;;;;;;26.60;37.00;;;;;;5046957;28;19933;-73
2024/03/01 12:40:49;;;;;;;;;;;26.70;37.00;;;;;;5045784;28;19940;-74
2024/03/01 12:43:36;;;;;;;;;;;26.70;37.10;;;;;;5043330;28;20724;-75
2024/03/01 12:46:23;;;;;;;;;;;26.70;37.10;;;;;;5048920;28;19979;-71
2024/03/01 12:49:10;;;;;;;;;;;26.70;37.00;;;;;;5046130;28;20457;-71
2024/03/01 12:51:45;;;;;;;;;;;26.70;36.90;;;;;;5048530;28;19925;-72
2024/03/01 12:54:14;;;;;;;;;;;26.70;36.80;;;;;;5045932;28;19925;-71
2024/03/01 12:56:53;;;;;;;;;;;26.70;36.80;;;;;;5045929;28;19924;-65
2024/03/01 12:59:40;;;;;;;;;;;26.60;36.90;;;;;;5041374;28;20852;-64
2024/03/01 13:02:21;;;;;;;;;;;26.60;36.90;;;;;;5048627;28;20286;-69
2024/03/01 13:04:59;;;;;;;;;;;26.70;36.90;;;;;;5051772;28;19929;-66
2024/03/01 13:07:28;;;;;;;;;;;26.60;37.00;;;;;;5048749;28;19925;-66
2024/03/01 13:09:56;;;;;;;;;;;26.60;37.00;;;;;;5051951;28;19975;-66
2024/03/01 13:12:24;;;;;;;;;;;26.70;36.90;;;;;;5051786;28;19929;-66
2024/03/01 13:15:01;;;;;;;;;;;26.70;36.80;;;;;;5052258;28;20410;-66
2024/03/01 13:17:34;;;;;;;;;;;26.70;36.70;;;;;;5051380;28;20408;-66
2024/03/01 13:20:19;;;;;;;;;;;26.70;36.70;;;;;;5051014;28;20513;-66
2024/03/01 13:22:50;;;;;;;;;;;26.80;36.70;;;;;;5052156;28;20333;-66
2024/03/01 13:25:36;;;;;;;;;;;26.80;36.60;;;;;;5051942;28;19924;-66
2024/03/01 13:28:13;;;;;;;;;;;26.80;36.60;;;;;;5046832;28;19939;-66
2024/03/01 13:30:43;;;;;;;;;;;26.80;36.50;;;;;;5051490;28;20356;-66
2024/03/01 13:33:27;;;;;;;;;;;26.80;36.50;;;;;;5051058;28;19968;-66
2024/03/01 13:36:10;;;;;;;;;;;26.90;36.60;;;;;;5053229;28;19931;-66
2024/03/01 13:38:58;;;;;;;;;;;26.90;36.60;;;;;;5052368;28;20437;-65
2024/03/01 13:41:26;;;;;;;;;;;26.80;36.60;;;;;;5052437;28;19970;-66
2024/03/01 13:44:13;;;;;;;;;;;26.80;36.80;;;;;;5052318;28;19932;-66
2024/03/01 13:46:41;;;;;;;;;;;26.80;36.90;;;;;;5051942;28;20394;-66
2024/03/01 13:49:08;;;;;;;;;;;26.70;37.00;;;;;;5051631;28;19928;-66
2024/03/01 13:51:37;;;;;;;;;;;26.70;37.00;;;;;;5051715;28;19932;-66
2024/03/01 13:54:05;;;;;;;;;;;26.60;37.00;;;;;;5051953;28;19999;-66
2024/03/01 13:56:34;;;;;;;;;;;26.60;37.10;;;;;;5057934;28;19970;-65
2024/03/01 13:59:04;;;;;;;;;;;26.60;37.10;;;;;;5052181;28;19932;-61
2024/03/01 14:01:31;;;;;;;;;;;26.60;37.30;;;;;;5051881;28;20292;-63
2024/03/01 14:03:59;;;;;;;;;;;26.50;38.70;;;;;;5051471;28;19929;-62
2024/03/01 14:06:26;;;;;;;;;;;26.50;41.20;;;;;;5034038;28;19933;-63
2024/03/01 14:08:53;;;;;;;;;;;26.50;41.50;;;;;;5051611;28;20384;-63
2024/03/01 14:11:20;;;;;;;;;;;26.50;41.10;;;;;;5051344;28;20015;-63
2024/03/01 14:13:51;;;;;;;;;;;26.50;40.50;;;;;;5052427;28;19928;-63
2024/03/01 14:16:18;;;;;;;;;;;26.50;39.70;;;;;;5052557;28;20361;-63
2024/03/01 14:18:45;;;;;;;;;;;26.50;39.60;;;;;;5032404;28;19929;-63
2024/03/01 14:21:12;;;;;;;;;;;26.40;39.80;;;;;;5032964;28;19925;-63
2024/03/01 14:23:40;;;;;;;;;;;26.50;39.80;;;;;;5032736;28;19925;-64
2024/03/01 14:26:10;;;;;;;;;;;26.40;39.80;;;;;;5032698;28;19925;-64
2024/03/01 14:28:37;;;;;;;;;;;26.40;39.80;;;;;;5032668;28;19932;-64
2024/03/01 14:31:05;;;;;;;;;;;26.40;39.70;;;;;;5032894;28;19971;-64
2024/03/01 14:33:33;;;;;;;;;;;26.30;39.50;;;;;;5032688;28;19925;-63
2024/03/01 14:36:06;;;;;;;;;;;26.30;39.30;;;;;;5032432;28;19925;-66
2024/03/01 14:38:36;;;;;;;;;;;26.30;39.00;;;;;;5032823;28;20287;-67